Time;durP1;ratioP1;P1;durP2;ratioP2;P2;SDS_P1;SDS_P2;PMS_P1;PMS_P2;Temp;Humidity;BMP_temperature;BMP_pressure;BME280_temperature;BME280_humidity;BME280_pressure;Samples;Min_cycle;Max_cycle;Signal;HPM_P1;HPM_P2
2024/01/23 00:01:26;;;;;;;;;;;19.60;44.00;;;;;;5074921;28;20045;-57
2024/01/23 00:03:53;;;;;;;;;;;19.60;44.00;;;;;;5056553;28;20238;-58
2024/01/23 00:06:19;;;;;;;;;;;19.60;44.00;;;;;;5059362;28;19922;-57
2024/01/23 00:08:48;;;;;;;;;;;19.60;44.00;;;;;;5058335;28;19920;-57
2024/01/23 00:11:15;;;;;;;;;;;19.60;44.00;;;;;;5058511;28;19928;-56
2024/01/23 00:13:41;;;;;;;;;;;19.60;44.00;;;;;;5075201;28;19920;-56
2024/01/23 00:16:08;;;;;;;;;;;19.60;44.10;;;;;;5058411;28;19966;-57
2024/01/23 00:18:35;;;;;;;;;;;19.50;44.00;;;;;;5074691;28;19924;-57
2024/01/23 00:21:02;;;;;;;;;;;19.50;44.00;;;;;;5058674;28;19974;-57
2024/01/23 00:23:28;;;;;;;;;;;19.60;44.00;;;;;;5059780;28;19924;-56
2024/01/23 00:25:57;;;;;;;;;;;19.50;44.00;;;;;;5060427;28;20273;-57
2024/01/23 00:28:23;;;;;;;;;;;19.60;44.10;;;;;;5056972;28;19931;-57
2024/01/23 00:30:50;;;;;;;;;;;19.50;44.00;;;;;;5054481;28;19925;-56
2024/01/23 00:33:17;;;;;;;;;;;19.50;44.00;;;;;;5057471;28;20014;-57
2024/01/23 00:35:43;;;;;;;;;;;19.50;44.00;;;;;;5059588;28;19970;-57
2024/01/23 00:38:10;;;;;;;;;;;19.60;44.10;;;;;;5055480;28;19920;-57
2024/01/23 00:40:37;;;;;;;;;;;19.50;44.00;;;;;;5057709;28;19921;-57
2024/01/23 00:43:06;;;;;;;;;;;19.50;44.00;;;;;;5055511;28;19920;-57
2024/01/23 00:45:35;;;;;;;;;;;19.50;44.00;;;;;;5057653;28;19924;-57
2024/01/23 00:48:02;;;;;;;;;;;19.50;44.00;;;;;;5056574;28;19920;-57
2024/01/23 00:50:28;;;;;;;;;;;19.50;44.00;;;;;;5055458;28;19954;-57
2024/01/23 00:52:55;;;;;;;;;;;19.50;44.00;;;;;;5059080;28;20019;-57
2024/01/23 00:55:22;;;;;;;;;;;19.50;44.00;;;;;;5076359;28;19974;-57
2024/01/23 00:57:49;;;;;;;;;;;19.50;44.00;;;;;;5067427;28;19967;-57
2024/01/23 01:00:17;;;;;;;;;;;19.50;44.00;;;;;;5048005;28;19924;-58
2024/01/23 01:02:44;;;;;;;;;;;19.50;44.00;;;;;;5059150;28;19962;-57
2024/01/23 01:05:10;;;;;;;;;;;19.50;44.00;;;;;;5057801;28;19927;-57
2024/01/23 01:07:37;;;;;;;;;;;19.50;44.00;;;;;;5053870;28;19927;-57
2024/01/23 01:10:05;;;;;;;;;;;19.50;44.00;;;;;;5074084;28;19964;-56
2024/01/23 01:12:33;;;;;;;;;;;19.50;44.00;;;;;;5070076;28;20031;-58
2024/01/23 01:15:00;;;;;;;;;;;19.50;44.00;;;;;;5039511;28;19921;-57
2024/01/23 01:17:28;;;;;;;;;;;19.50;44.00;;;;;;5066825;28;19920;-57
2024/01/23 01:19:55;;;;;;;;;;;19.50;44.00;;;;;;5056624;28;19920;-57
2024/01/23 01:22:22;;;;;;;;;;;19.50;44.00;;;;;;5055455;28;19921;-57
2024/01/23 01:24:48;;;;;;;;;;;19.50;44.00;;;;;;5056445;28;19932;-58
2024/01/23 01:27:15;;;;;;;;;;;19.50;44.00;;;;;;5053668;28;19982;-57
2024/01/23 01:29:42;;;;;;;;;;;19.50;44.00;;;;;;5056528;28;20365;-56
2024/01/23 01:32:09;;;;;;;;;;;19.50;43.90;;;;;;5056658;28;19974;-57
2024/01/23 01:34:37;;;;;;;;;;;19.50;43.90;;;;;;5039476;28;19925;-57
2024/01/23 01:37:04;;;;;;;;;;;19.50;43.90;;;;;;5055930;28;19974;-58
2024/01/23 01:39:33;;;;;;;;;;;19.50;43.90;;;;;;5058063;28;19921;-57
2024/01/23 01:42:00;;;;;;;;;;;19.50;44.00;;;;;;5058579;28;19980;-57
2024/01/23 01:44:26;;;;;;;;;;;19.50;44.00;;;;;;5055972;28;19926;-58
2024/01/23 01:46:53;;;;;;;;;;;19.50;44.00;;;;;;5071643;28;20324;-58
2024/01/23 01:49:20;;;;;;;;;;;19.50;44.00;;;;;;5056136;28;19920;-57
2024/01/23 01:51:48;;;;;;;;;;;19.50;44.00;;;;;;5054937;28;19920;-58
2024/01/23 01:54:15;;;;;;;;;;;19.50;44.00;;;;;;5065653;28;19921;-57
2024/01/23 01:56:42;;;;;;;;;;;19.50;44.00;;;;;;5092133;28;19945;-57
2024/01/23 01:59:09;;;;;;;;;;;19.50;44.00;;;;;;5074562;28;19927;-57
2024/01/23 02:01:36;;;;;;;;;;;19.50;44.00;;;;;;5072484;28;19978;-57
2024/01/23 02:04:03;;;;;;;;;;;19.50;44.50;;;;;;5056515;28;19921;-58
2024/01/23 02:06:30;;;;;;;;;;;19.50;44.00;;;;;;5057702;28;19930;-57
2024/01/23 02:08:58;;;;;;;;;;;19.50;44.00;;;;;;5057822;28;19928;-56
2024/01/23 02:11:25;;;;;;;;;;;19.50;44.00;;;;;;5072138;28;19973;-58
2024/01/23 02:13:54;;;;;;;;;;;19.50;44.00;;;;;;5056308;28;19928;-57
2024/01/23 02:16:21;;;;;;;;;;;19.50;44.00;;;;;;5057612;28;19921;-57
2024/01/23 02:18:48;;;;;;;;;;;19.50;44.00;;;;;;5054980;28;19924;-57
2024/01/23 02:21:15;;;;;;;;;;;19.50;44.00;;;;;;5055487;28;19920;-57
2024/01/23 02:23:43;;;;;;;;;;;19.50;44.00;;;;;;5057428;28;19920;-57
2024/01/23 02:26:14;;;;;;;;;;;19.50;44.00;;;;;;5075345;28;19927;-57
2024/01/23 02:28:40;;;;;;;;;;;19.50;44.00;;;;;;5041455;28;19920;-57
2024/01/23 02:31:07;;;;;;;;;;;19.50;43.90;;;;;;5055592;28;19924;-57
2024/01/23 02:33:34;;;;;;;;;;;19.50;44.00;;;;;;5056029;28;19927;-57
2024/01/23 02:36:00;;;;;;;;;;;19.50;43.90;;;;;;5041910;28;19927;-57
2024/01/23 02:38:27;;;;;;;;;;;19.50;43.90;;;;;;5058275;28;19920;-57
2024/01/23 02:40:56;;;;;;;;;;;19.50;43.90;;;;;;5056960;28;19924;-56
2024/01/23 02:43:22;;;;;;;;;;;19.50;43.90;;;;;;5041292;28;19928;-56
2024/01/23 02:45:49;;;;;;;;;;;19.50;43.90;;;;;;5057117;28;19920;-57
2024/01/23 02:48:16;;;;;;;;;;;19.50;43.90;;;;;;5057144;28;19924;-57
2024/01/23 02:50:43;;;;;;;;;;;19.50;43.90;;;;;;5074867;28;19966;-57
2024/01/23 02:53:09;;;;;;;;;;;19.50;43.90;;;;;;5040502;28;19924;-57
2024/01/23 02:55:36;;;;;;;;;;;19.50;43.90;;;;;;5057263;28;19924;-57
2024/01/23 02:58:04;;;;;;;;;;;19.50;43.90;;;;;;5074726;28;19978;-57
2024/01/23 03:00:32;;;;;;;;;;;19.50;43.90;;;;;;5057626;28;19982;-57
2024/01/23 03:02:59;;;;;;;;;;;19.50;43.90;;;;;;5081375;28;19921;-58
2024/01/23 03:05:26;;;;;;;;;;;19.50;43.90;;;;;;5063660;28;19970;-57
2024/01/23 03:07:53;;;;;;;;;;;19.50;43.90;;;;;;5064062;28;19943;-57
2024/01/23 03:10:20;;;;;;;;;;;19.50;43.90;;;;;;5064346;28;19920;-56
2024/01/23 03:12:47;;;;;;;;;;;19.50;43.90;;;;;;5081485;28;19924;-57
2024/01/23 03:15:15;;;;;;;;;;;19.50;43.90;;;;;;5064121;28;19926;-57
2024/01/23 03:17:41;;;;;;;;;;;19.50;43.90;;;;;;5063966;28;19928;-57
2024/01/23 03:20:09;;;;;;;;;;;19.50;43.90;;;;;;5063232;28;19920;-57
2024/01/23 03:22:35;;;;;;;;;;;19.50;43.90;;;;;;5064325;28;19921;-56
2024/01/23 03:25:02;;;;;;;;;;;19.50;43.90;;;;;;5063026;28;19966;-56
2024/01/23 03:27:29;;;;;;;;;;;19.50;43.90;;;;;;5081335;28;19927;-57
2024/01/23 03:29:56;;;;;;;;;;;19.40;43.80;;;;;;5081082;28;19921;-57
2024/01/23 03:32:26;;;;;;;;;;;19.50;43.80;;;;;;5063350;28;19920;-56
2024/01/23 03:34:52;;;;;;;;;;;19.50;43.80;;;;;;5062074;28;19967;-57
2024/01/23 03:37:19;;;;;;;;;;;19.50;43.90;;;;;;5081425;28;19926;-57
2024/01/23 03:39:46;;;;;;;;;;;19.50;43.80;;;;;;5064485;28;19921;-57
2024/01/23 03:42:12;;;;;;;;;;;19.50;43.80;;;;;;5064287;28;19946;-57
2024/01/23 03:44:39;;;;;;;;;;;19.50;43.80;;;;;;5081088;28;19920;-57
2024/01/23 03:47:06;;;;;;;;;;;19.50;43.80;;;;;;5079287;28;19928;-57
2024/01/23 03:49:35;;;;;;;;;;;19.50;43.80;;;;;;5063258;28;19966;-57
2024/01/23 03:52:03;;;;;;;;;;;19.50;43.80;;;;;;5077794;28;20672;-56
2024/01/23 03:54:30;;;;;;;;;;;19.50;43.80;;;;;;5101327;28;19950;-57
2024/01/23 03:56:57;;;;;;;;;;;19.40;43.80;;;;;;5083489;28;19965;-57
2024/01/23 03:59:24;;;;;;;;;;;19.50;43.80;;;;;;5081607;28;20385;-57
2024/01/23 04:01:51;;;;;;;;;;;19.40;43.70;;;;;;5067980;28;19921;-57
2024/01/23 04:04:20;;;;;;;;;;;19.50;43.80;;;;;;5043929;28;19925;-56
2024/01/23 04:06:48;;;;;;;;;;;19.50;43.80;;;;;;5101097;28;19966;-56
2024/01/23 04:09:14;;;;;;;;;;;19.40;43.70;;;;;;5068754;28;19928;-57
2024/01/23 04:11:42;;;;;;;;;;;19.40;43.70;;;;;;5062749;28;19921;-56
2024/01/23 04:14:09;;;;;;;;;;;19.50;43.80;;;;;;5058250;28;19960;-57
2024/01/23 04:16:36;;;;;;;;;;;19.40;43.70;;;;;;5060149;28;19970;-57
2024/01/23 04:19:03;;;;;;;;;;;19.40;43.70;;;;;;5060143;28;19920;-57
2024/01/23 04:21:29;;;;;;;;;;;19.40;43.70;;;;;;5060008;28;20015;-57
2024/01/23 04:23:57;;;;;;;;;;;19.40;44.30;;;;;;5059852;28;19938;-56
2024/01/23 04:26:24;;;;;;;;;;;19.40;43.70;;;;;;5059457;28;20023;-57
2024/01/23 04:28:51;;;;;;;;;;;19.40;43.70;;;;;;5060086;28;19920;-57
2024/01/23 04:31:17;;;;;;;;;;;19.40;43.70;;;;;;5059454;28;19920;-55
2024/01/23 04:33:46;;;;;;;;;;;19.50;43.80;;;;;;5059648;28;19920;-57
2024/01/23 04:36:13;;;;;;;;;;;19.40;43.70;;;;;;5059401;28;19959;-56
2024/01/23 04:38:40;;;;;;;;;;;19.40;43.60;;;;;;5066758;28;19920;-57
2024/01/23 04:41:08;;;;;;;;;;;19.40;43.60;;;;;;5095695;28;19928;-58
2024/01/23 04:43:35;;;;;;;;;;;19.40;43.60;;;;;;5078986;28;19920;-57
2024/01/23 04:46:01;;;;;;;;;;;19.40;43.60;;;;;;5096888;28;19920;-57
2024/01/23 04:48:29;;;;;;;;;;;19.50;43.70;;;;;;5063526;28;19919;-56
2024/01/23 04:50:55;;;;;;;;;;;19.40;43.60;;;;;;5094243;28;19920;-56
2024/01/23 04:53:23;;;;;;;;;;;19.40;43.60;;;;;;5096089;28;19920;-57
2024/01/23 04:55:49;;;;;;;;;;;19.40;43.60;;;;;;5079874;28;19981;-56
2024/01/23 04:58:17;;;;;;;;;;;19.40;43.60;;;;;;5079531;28;20346;-56
2024/01/23 05:00:44;;;;;;;;;;;19.40;43.60;;;;;;5071613;28;19982;-57
2024/01/23 05:03:11;;;;;;;;;;;19.40;43.60;;;;;;5059809;28;19920;-57
2024/01/23 05:05:37;;;;;;;;;;;19.40;43.60;;;;;;5076971;28;19981;-57
2024/01/23 05:08:05;;;;;;;;;;;19.40;43.60;;;;;;5058614;28;19921;-58
2024/01/23 05:10:32;;;;;;;;;;;19.40;43.60;;;;;;5058969;28;19991;-56
2024/01/23 05:12:59;;;;;;;;;;;19.40;43.60;;;;;;5058819;28;19981;-56
2024/01/23 05:15:27;;;;;;;;;;;19.40;43.60;;;;;;5092740;28;19924;-56
2024/01/23 05:17:54;;;;;;;;;;;19.40;43.60;;;;;;5092412;28;20411;-56
2024/01/23 05:20:21;;;;;;;;;;;19.40;43.60;;;;;;5058888;28;19920;-54
2024/01/23 05:22:48;;;;;;;;;;;19.40;43.60;;;;;;5058900;28;19932;-55
2024/01/23 05:25:16;;;;;;;;;;;19.40;43.60;;;;;;5058275;28;19943;-55
2024/01/23 05:27:43;;;;;;;;;;;19.40;43.60;;;;;;5059163;28;19920;-54
2024/01/23 05:30:10;;;;;;;;;;;19.40;43.50;;;;;;5056958;28;19920;-57
2024/01/23 05:32:40;;;;;;;;;;;19.40;43.60;;;;;;5078493;28;19931;-55
2024/01/23 05:35:07;;;;;;;;;;;19.40;43.50;;;;;;5078549;28;19920;-56
2024/01/23 05:37:34;;;;;;;;;;;19.40;43.50;;;;;;5096373;28;20265;-56
2024/01/23 05:40:01;;;;;;;;;;;19.40;43.50;;;;;;5078573;28;19920;-56
2024/01/23 05:42:28;;;;;;;;;;;19.40;43.50;;;;;;5096000;28;19931;-55
2024/01/23 05:44:55;;;;;;;;;;;19.40;43.50;;;;;;5095059;28;19977;-55
2024/01/23 05:47:22;;;;;;;;;;;19.40;43.50;;;;;;5074826;28;19920;-55
2024/01/23 05:49:51;;;;;;;;;;;19.40;43.60;;;;;;5058344;28;19942;-56
2024/01/23 05:52:18;;;;;;;;;;;19.40;43.50;;;;;;5054977;28;20063;-56
2024/01/23 05:54:45;;;;;;;;;;;19.40;43.50;;;;;;5090335;28;19920;-56
2024/01/23 05:57:12;;;;;;;;;;;19.40;43.50;;;;;;5065260;28;19924;-56
2024/01/23 05:59:38;;;;;;;;;;;19.40;43.50;;;;;;5073367;28;19920;-55
2024/01/23 06:02:05;;;;;;;;;;;19.40;43.50;;;;;;5065035;28;19976;-55
2024/01/23 06:04:32;;;;;;;;;;;19.40;43.50;;;;;;5075376;28;19920;-54
2024/01/23 06:07:00;;;;;;;;;;;19.40;43.50;;;;;;5061546;28;19924;-56
2024/01/23 06:09:29;;;;;;;;;;;19.40;43.50;;;;;;5088499;28;19920;-56
2024/01/23 06:11:55;;;;;;;;;;;19.40;43.50;;;;;;5073646;28;20006;-56
2024/01/23 06:14:22;;;;;;;;;;;19.40;43.50;;;;;;5069779;28;20317;-56
2024/01/23 06:16:49;;;;;;;;;;;19.40;43.50;;;;;;5065067;28;19946;-56
2024/01/23 06:19:16;;;;;;;;;;;19.40;43.50;;;;;;5076411;28;19921;-55
2024/01/23 06:21:42;;;;;;;;;;;19.40;43.50;;;;;;5055905;28;19920;-54
2024/01/23 06:24:10;;;;;;;;;;;19.40;43.50;;;;;;5076501;28;19927;-55
2024/01/23 06:26:37;;;;;;;;;;;19.40;43.50;;;;;;5062380;28;19920;-56
2024/01/23 06:29:04;;;;;;;;;;;19.40;43.50;;;;;;5075907;28;19973;-58
2024/01/23 06:31:31;;;;;;;;;;;19.40;43.50;;;;;;5062334;28;19924;-54
2024/01/23 06:33:58;;;;;;;;;;;19.40;43.50;;;;;;5080567;28;20307;-56
2024/01/23 06:36:24;;;;;;;;;;;19.40;43.50;;;;;;5078481;28;19924;-54
2024/01/23 06:38:51;;;;;;;;;;;19.40;43.50;;;;;;5056594;28;19920;-56
2024/01/23 06:41:19;;;;;;;;;;;19.40;43.50;;;;;;5052438;28;19927;-56
2024/01/23 06:43:49;;;;;;;;;;;19.40;43.50;;;;;;5041716;28;20238;-56
2024/01/23 06:46:16;;;;;;;;;;;19.40;43.40;;;;;;5082979;28;19920;-55
2024/01/23 06:48:42;;;;;;;;;;;19.40;43.50;;;;;;5063440;28;19920;-56
2024/01/23 06:51:09;;;;;;;;;;;19.40;43.50;;;;;;5092378;28;19924;-56
2024/01/23 06:53:36;;;;;;;;;;;19.40;43.40;;;;;;5083491;28;20010;-56
2024/01/23 06:56:03;;;;;;;;;;;19.40;43.50;;;;;;5063336;28;19924;-55
2024/01/23 06:58:31;;;;;;;;;;;19.40;43.50;;;;;;5069505;28;19924;-57
2024/01/23 07:00:58;;;;;;;;;;;19.40;43.50;;;;;;5082750;28;19974;-57
2024/01/23 07:03:25;;;;;;;;;;;19.40;43.50;;;;;;5066154;28;19920;-56
2024/01/23 07:05:51;;;;;;;;;;;19.40;43.50;;;;;;5074416;28;19920;-57
2024/01/23 07:08:20;;;;;;;;;;;19.40;43.50;;;;;;5068569;28;19920;-55
2024/01/23 07:10:47;;;;;;;;;;;19.40;43.50;;;;;;5063614;28;19920;-56
2024/01/23 07:13:15;;;;;;;;;;;19.40;43.50;;;;;;5052989;28;19921;-54
2024/01/23 07:15:44;;;;;;;;;;;19.40;43.50;;;;;;5067963;28;19927;-56
2024/01/23 07:18:10;;;;;;;;;;;19.40;43.50;;;;;;5041065;28;19924;-56
2024/01/23 07:20:37;;;;;;;;;;;19.40;43.50;;;;;;5048367;28;20018;-58
2024/01/23 07:23:04;;;;;;;;;;;19.40;43.50;;;;;;5061722;28;19927;-56
2024/01/23 07:25:31;;;;;;;;;;;19.40;43.50;;;;;;5080324;28;19942;-56
2024/01/23 07:27:58;;;;;;;;;;;19.40;43.50;;;;;;5053317;28;19921;-56
2024/01/23 07:30:27;;;;;;;;;;;19.40;43.50;;;;;;5072189;28;19932;-58
2024/01/23 07:32:55;;;;;;;;;;;19.40;43.50;;;;;;5078040;28;19920;-57
2024/01/23 07:35:22;;;;;;;;;;;19.40;43.50;;;;;;5047998;28;19986;-54
2024/01/23 07:37:48;;;;;;;;;;;19.40;43.50;;;;;;5062590;28;19933;-53
2024/01/23 07:40:16;;;;;;;;;;;19.40;43.40;;;;;;5080091;28;19928;-50
2024/01/23 07:42:42;;;;;;;;;;;19.40;43.20;;;;;;5073212;28;19927;-56
2024/01/23 07:45:11;;;;;;;;;;;19.40;43.00;;;;;;5048659;28;19920;-55
2024/01/23 07:47:37;;;;;;;;;;;19.40;42.90;;;;;;5077812;28;19920;-54
2024/01/23 07:50:07;;;;;;;;;;;19.40;42.70;;;;;;5075272;28;19974;-55
2024/01/23 07:52:34;;;;;;;;;;;19.40;43.20;;;;;;5074297;28;19947;-56
2024/01/23 07:55:02;;;;;;;;;;;19.40;42.50;;;;;;5056250;28;19981;-50
2024/01/23 07:57:29;;;;;;;;;;;19.40;42.70;;;;;;5057867;28;19921;-55
2024/01/23 07:59:56;;;;;;;;;;;19.40;42.70;;;;;;5053742;28;19932;-57
2024/01/23 08:02:24;;;;;;;;;;;19.40;42.80;;;;;;5060261;28;19920;-58
2024/01/23 08:04:50;;;;;;;;;;;19.40;42.80;;;;;;5068009;28;20072;-60
2024/01/23 08:07:19;;;;;;;;;;;19.40;42.90;;;;;;5051426;28;19937;-58
2024/01/23 08:09:45;;;;;;;;;;;19.40;42.90;;;;;;5057621;28;19982;-59
2024/01/23 08:12:12;;;;;;;;;;;19.40;42.90;;;;;;5071805;28;19954;-56
2024/01/23 08:14:39;;;;;;;;;;;19.40;42.90;;;;;;5056159;28;20128;-56
2024/01/23 08:17:06;;;;;;;;;;;19.40;42.90;;;;;;5050721;28;19932;-58
2024/01/23 08:19:32;;;;;;;;;;;19.40;43.00;;;;;;5047462;28;19928;-59
2024/01/23 08:21:59;;;;;;;;;;;19.40;43.00;;;;;;5052548;28;20381;-59
2024/01/23 08:24:29;;;;;;;;;;;19.40;43.00;;;;;;5055923;28;19920;-58
2024/01/23 08:26:56;;;;;;;;;;;19.50;43.10;;;;;;5055716;28;20285;-59
2024/01/23 08:29:23;;;;;;;;;;;19.50;43.10;;;;;;5070305;28;20003;-58
2024/01/23 08:31:51;;;;;;;;;;;19.50;43.10;;;;;;5071374;28;19920;-58
2024/01/23 08:34:17;;;;;;;;;;;19.50;43.20;;;;;;5053654;28;19932;-59
2024/01/23 08:36:44;;;;;;;;;;;19.50;43.20;;;;;;5053532;28;19920;-59
2024/01/23 08:39:11;;;;;;;;;;;19.50;43.20;;;;;;5072183;28;19925;-59
2024/01/23 08:41:39;;;;;;;;;;;19.50;43.20;;;;;;5054993;28;19933;-58
2024/01/23 08:44:06;;;;;;;;;;;19.50;43.30;;;;;;5053296;28;19924;-58
2024/01/23 08:46:33;;;;;;;;;;;19.50;43.30;;;;;;5063439;28;19932;-58
2024/01/23 08:48:59;;;;;;;;;;;19.60;43.50;;;;;;5053976;28;19925;-57
2024/01/23 08:51:28;;;;;;;;;;;19.50;43.40;;;;;;5072104;28;19927;-56
2024/01/23 08:53:54;;;;;;;;;;;19.60;43.50;;;;;;5065236;28;19920;-58
2024/01/23 08:56:23;;;;;;;;;;;19.60;43.50;;;;;;5072917;28;19978;-58
2024/01/23 08:58:51;;;;;;;;;;;19.60;43.50;;;;;;5072043;28;20421;-59
2024/01/23 09:01:18;;;;;;;;;;;19.60;43.50;;;;;;5060919;28;19928;-57
2024/01/23 09:03:44;;;;;;;;;;;19.60;43.60;;;;;;5054250;28;19931;-56
2024/01/23 09:06:11;;;;;;;;;;;19.60;43.60;;;;;;5063083;28;19924;-57
2024/01/23 09:08:38;;;;;;;;;;;19.60;43.50;;;;;;5051754;28;19928;-54
2024/01/23 09:11:05;;;;;;;;;;;19.60;43.60;;;;;;5036693;28;19924;-58
2024/01/23 09:13:32;;;;;;;;;;;19.60;43.60;;;;;;5053560;28;19943;-54
2024/01/23 09:16:00;;;;;;;;;;;19.70;43.60;;;;;;5071350;28;19920;-58
2024/01/23 09:18:28;;;;;;;;;;;19.70;43.60;;;;;;5054187;28;19928;-59
2024/01/23 09:20:56;;;;;;;;;;;19.70;43.70;;;;;;5054767;28;19921;-58
2024/01/23 09:23:22;;;;;;;;;;;19.70;43.70;;;;;;5051277;28;20366;-56
2024/01/23 09:25:50;;;;;;;;;;;19.70;43.70;;;;;;5041695;28;19925;-59
2024/01/23 09:28:17;;;;;;;;;;;19.70;43.70;;;;;;5072268;28;20011;-56
2024/01/23 09:30:44;;;;;;;;;;;19.70;43.70;;;;;;5054320;28;19920;-56
2024/01/23 09:33:12;;;;;;;;;;;19.70;43.70;;;;;;5052454;28;19964;-53
2024/01/23 09:35:39;;;;;;;;;;;19.70;43.70;;;;;;5047862;28;19928;-58
2024/01/23 09:38:05;;;;;;;;;;;19.70;43.70;;;;;;5054537;28;19924;-58
2024/01/23 09:40:32;;;;;;;;;;;19.70;43.70;;;;;;5079444;28;19924;-59
2024/01/23 09:42:59;;;;;;;;;;;19.70;43.70;;;;;;5079690;28;19925;-59
2024/01/23 09:45:27;;;;;;;;;;;19.70;43.70;;;;;;5041838;28;19920;-59
2024/01/23 09:47:54;;;;;;;;;;;19.70;43.70;;;;;;5043239;28;19936;-57
2024/01/23 09:50:24;;;;;;;;;;;19.70;43.80;;;;;;5054641;28;19920;-58
2024/01/23 09:52:51;;;;;;;;;;;19.80;43.90;;;;;;5053477;28;19944;-55
2024/01/23 09:55:18;;;;;;;;;;;19.80;43.90;;;;;;5070921;28;19932;-55
2024/01/23 09:57:45;;;;;;;;;;;19.70;43.80;;;;;;5070851;28;19954;-54
2024/01/23 10:00:12;;;;;;;;;;;19.70;43.80;;;;;;5060071;28;19974;-57
2024/01/23 10:02:39;;;;;;;;;;;19.80;43.90;;;;;;5076234;28;19924;-55
2024/01/23 10:05:08;;;;;;;;;;;19.80;43.90;;;;;;5051848;28;19929;-55
2024/01/23 10:07:36;;;;;;;;;;;19.80;43.90;;;;;;5048002;28;19921;-55
2024/01/23 10:10:05;;;;;;;;;;;19.80;43.90;;;;;;5050393;28;19932;-54
2024/01/23 10:12:32;;;;;;;;;;;19.80;43.90;;;;;;5051256;28;19920;-53
2024/01/23 10:15:00;;;;;;;;;;;19.80;43.90;;;;;;5069148;28;20009;-50
2024/01/23 10:17:27;;;;;;;;;;;19.80;43.90;;;;;;5052071;28;19920;-56
2024/01/23 10:19:54;;;;;;;;;;;19.80;43.90;;;;;;5057358;28;19921;-58
2024/01/23 10:22:21;;;;;;;;;;;19.80;43.90;;;;;;5071711;28;19970;-57
2024/01/23 10:24:49;;;;;;;;;;;19.80;44.00;;;;;;5057309;28;20349;-53
2024/01/23 10:27:16;;;;;;;;;;;19.80;43.90;;;;;;5066386;28;19924;-58
2024/01/23 10:29:42;;;;;;;;;;;19.80;44.00;;;;;;5052423;28;19924;-59
2024/01/23 10:32:09;;;;;;;;;;;19.80;44.00;;;;;;5069821;28;19921;-54
2024/01/23 10:34:36;;;;;;;;;;;19.80;43.90;;;;;;5048948;28;19924;-56
2024/01/23 10:37:03;;;;;;;;;;;19.80;44.00;;;;;;5064552;28;19924;-56
2024/01/23 10:39:29;;;;;;;;;;;19.80;44.00;;;;;;5048843;28;19970;-53
2024/01/23 10:41:57;;;;;;;;;;;19.80;44.00;;;;;;5062189;28;19931;-55
2024/01/23 10:44:24;;;;;;;;;;;19.80;44.00;;;;;;5063583;28;19920;-58
2024/01/23 10:46:54;;;;;;;;;;;19.80;44.00;;;;;;5067238;28;19925;-56
2024/01/23 10:49:20;;;;;;;;;;;19.80;44.00;;;;;;5045452;28;19920;-58
2024/01/23 10:51:47;;;;;;;;;;;19.80;44.00;;;;;;5042212;28;19928;-58
2024/01/23 10:54:15;;;;;;;;;;;19.80;44.00;;;;;;5064596;28;19920;-56
2024/01/23 10:56:42;;;;;;;;;;;19.80;44.00;;;;;;5065186;28;19927;-57
2024/01/23 10:59:13;;;;;;;;;;;19.80;44.00;;;;;;5065182;28;19978;-55
2024/01/23 11:01:39;;;;;;;;;;;19.80;44.00;;;;;;5048125;28;19972;-56
2024/01/23 11:04:06;;;;;;;;;;;19.80;44.00;;;;;;5045188;28;19932;-58
2024/01/23 11:06:33;;;;;;;;;;;19.80;44.00;;;;;;5061547;28;19924;-57
2024/01/23 11:09:01;;;;;;;;;;;19.80;44.00;;;;;;5047623;28;19928;-52
2024/01/23 11:11:30;;;;;;;;;;;19.80;44.00;;;;;;5066065;28;19920;-52
2024/01/23 11:13:58;;;;;;;;;;;19.80;44.00;;;;;;5065600;28;19932;-56
2024/01/23 11:16:26;;;;;;;;;;;19.80;44.00;;;;;;5045666;28;20167;-55
2024/01/23 11:18:54;;;;;;;;;;;19.80;43.90;;;;;;5061165;28;19925;-58
2024/01/23 11:21:22;;;;;;;;;;;19.80;43.90;;;;;;5065118;28;19920;-58
2024/01/23 11:23:58;;;;;;;;;;;19.80;43.90;;;;;;5069276;28;19932;-54
2024/01/23 11:26:26;;;;;;;;;;;19.90;44.00;;;;;;5068619;28;20002;-55
2024/01/23 11:28:53;;;;;;;;;;;19.80;44.00;;;;;;5050048;28;19978;-58
2024/01/23 11:31:20;;;;;;;;;;;19.90;44.00;;;;;;5050535;28;19932;-59
2024/01/23 11:33:48;;;;;;;;;;;19.80;43.90;;;;;;5067695;28;20019;-56
2024/01/23 11:36:15;;;;;;;;;;;19.90;44.00;;;;;;5049085;28;19920;-57
2024/01/23 11:38:42;;;;;;;;;;;19.90;44.00;;;;;;5067241;28;19936;-57
2024/01/23 11:41:15;;;;;;;;;;;19.90;44.00;;;;;;5046586;28;19982;-59
2024/01/23 11:43:42;;;;;;;;;;;19.90;44.00;;;;;;5048913;28;19921;-59
2024/01/23 11:46:13;;;;;;;;;;;19.90;44.00;;;;;;5066550;28;19921;-59
2024/01/23 11:48:40;;;;;;;;;;;20.00;44.10;;;;;;5066351;28;19978;-58
2024/01/23 11:51:08;;;;;;;;;;;19.90;44.00;;;;;;5050491;28;19977;-59
2024/01/23 11:53:35;;;;;;;;;;;19.90;44.00;;;;;;5054096;28;20005;-58
2024/01/23 11:56:02;;;;;;;;;;;19.90;44.00;;;;;;5052568;28;19938;-58
2024/01/23 11:58:29;;;;;;;;;;;19.90;44.00;;;;;;5070678;28;19980;-59
2024/01/23 12:00:56;;;;;;;;;;;19.90;44.00;;;;;;5068981;28;19920;-58
2024/01/23 12:03:22;;;;;;;;;;;19.90;44.00;;;;;;5069084;28;19936;-58
2024/01/23 12:05:51;;;;;;;;;;;19.90;44.00;;;;;;5051234;28;19924;-58
2024/01/23 12:08:19;;;;;;;;;;;19.90;43.90;;;;;;5052783;28;19941;-57
2024/01/23 12:10:46;;;;;;;;;;;19.90;43.90;;;;;;5056874;28;19926;-55
2024/01/23 12:13:12;;;;;;;;;;;19.90;40.70;;;;;;5052535;28;19920;-55
2024/01/23 12:15:39;;;;;;;;;;;19.80;39.90;;;;;;5053852;28;19927;-57
2024/01/23 12:18:06;;;;;;;;;;;19.80;40.80;;;;;;5050613;28;19921;-59
2024/01/23 12:20:33;;;;;;;;;;;19.80;41.40;;;;;;5050646;28;19921;-55
2024/01/23 12:22:59;;;;;;;;;;;19.70;41.60;;;;;;5065629;28;19920;-58
2024/01/23 12:25:28;;;;;;;;;;;19.70;42.00;;;;;;5069126;28;19920;-59
2024/01/23 12:27:54;;;;;;;;;;;19.70;42.20;;;;;;5051386;28;19924;-55
2024/01/23 12:30:21;;;;;;;;;;;19.70;42.30;;;;;;5047808;28;19920;-52
2024/01/23 12:32:48;;;;;;;;;;;19.70;42.50;;;;;;5070174;28;19920;-55
2024/01/23 12:35:14;;;;;;;;;;;19.70;42.60;;;;;;5058546;28;19932;-58
2024/01/23 12:37:41;;;;;;;;;;;19.70;42.70;;;;;;5082672;28;19924;-59
2024/01/23 12:40:09;;;;;;;;;;;19.80;42.80;;;;;;5080857;28;19924;-59
2024/01/23 12:42:39;;;;;;;;;;;19.80;42.90;;;;;;5057930;28;19969;-56
2024/01/23 12:45:08;;;;;;;;;;;19.80;42.90;;;;;;5077381;28;19921;-56
2024/01/23 12:47:35;;;;;;;;;;;19.80;43.00;;;;;;5063262;28;19924;-57
2024/01/23 12:50:02;;;;;;;;;;;19.80;43.00;;;;;;5061597;28;19969;-56
2024/01/23 12:52:29;;;;;;;;;;;19.80;43.10;;;;;;5081976;28;19973;-55
2024/01/23 12:54:56;;;;;;;;;;;19.80;43.10;;;;;;5064933;28;19927;-57
2024/01/23 12:57:23;;;;;;;;;;;19.80;43.20;;;;;;5082809;28;19921;-58
2024/01/23 12:59:51;;;;;;;;;;;19.80;43.20;;;;;;5081391;28;20308;-50
2024/01/23 13:02:18;;;;;;;;;;;19.80;43.30;;;;;;5079724;28;20296;-58
2024/01/23 13:04:44;;;;;;;;;;;19.80;43.30;;;;;;5059898;28;19987;-57
2024/01/23 13:07:11;;;;;;;;;;;19.80;43.30;;;;;;5059888;28;19920;-58
2024/01/23 13:09:38;;;;;;;;;;;19.90;43.40;;;;;;5059299;28;20376;-57
2024/01/23 13:12:05;;;;;;;;;;;19.90;43.50;;;;;;5056182;28;19931;-59
2024/01/23 13:14:34;;;;;;;;;;;19.90;43.50;;;;;;5062455;28;19920;-54
2024/01/23 13:17:02;;;;;;;;;;;19.90;43.50;;;;;;5078244;28;19927;-58
2024/01/23 13:19:29;;;;;;;;;;;19.90;43.50;;;;;;5073465;28;19927;-55
2024/01/23 13:21:56;;;;;;;;;;;19.90;43.50;;;;;;5052452;28;19920;-57
2024/01/23 13:24:22;;;;;;;;;;;19.90;43.60;;;;;;5050454;28;19966;-56
2024/01/23 13:26:49;;;;;;;;;;;19.90;43.60;;;;;;5065884;28;20332;-58
2024/01/23 13:29:16;;;;;;;;;;;19.90;43.60;;;;;;5037263;28;19921;-57
2024/01/23 13:31:45;;;;;;;;;;;19.90;43.60;;;;;;5050141;28;20262;-58
2024/01/23 13:34:13;;;;;;;;;;;19.90;43.60;;;;;;5051605;28;20358;-57
2024/01/23 13:36:40;;;;;;;;;;;19.90;43.60;;;;;;5051264;28;19920;-58
2024/01/23 13:39:12;;;;;;;;;;;19.90;43.70;;;;;;5050839;28;19920;-58
2024/01/23 13:41:40;;;;;;;;;;;19.90;43.70;;;;;;5071132;28;19936;-59
2024/01/23 13:44:07;;;;;;;;;;;20.00;43.80;;;;;;5067893;28;19920;-59
2024/01/23 13:46:34;;;;;;;;;;;20.00;43.80;;;;;;5070354;28;19920;-60
2024/01/23 13:49:00;;;;;;;;;;;20.00;43.80;;;;;;5049366;28;19950;-59
2024/01/23 13:51:29;;;;;;;;;;;20.00;43.80;;;;;;5069707;28;19924;-57
2024/01/23 13:53:56;;;;;;;;;;;20.00;43.80;;;;;;5066774;28;19986;-57
2024/01/23 13:56:23;;;;;;;;;;;20.00;43.80;;;;;;5047629;28;19927;-58
2024/01/23 13:58:51;;;;;;;;;;;20.00;43.80;;;;;;5069444;28;19966;-57
2024/01/23 14:01:18;;;;;;;;;;;20.00;43.80;;;;;;5053909;28;19955;-58
2024/01/23 14:03:44;;;;;;;;;;;20.00;43.80;;;;;;5049581;28;19927;-57
2024/01/23 14:06:11;;;;;;;;;;;20.00;43.90;;;;;;5067123;28;19927;-56
2024/01/23 14:08:41;;;;;;;;;;;20.00;43.90;;;;;;5048611;28;19956;-58
2024/01/23 14:11:09;;;;;;;;;;;20.00;44.00;;;;;;5052367;28;19966;-57
2024/01/23 14:13:36;;;;;;;;;;;20.00;44.00;;;;;;5052025;28;19931;-57
2024/01/23 14:16:02;;;;;;;;;;;20.00;44.00;;;;;;5052316;28;20030;-58